createdAt,value
2019-01-22T00:00:28.456Z,82.26
2019-01-22T00:02:28.989Z,80.27
2019-01-22T00:03:21.203Z,81.09
2019-01-22T00:04:13.296Z,81.27
2019-01-22T00:05:06.069Z,82.12
2019-01-22T00:05:59.069Z,82.12
2019-01-22T00:06:51.231Z,81.56
2019-01-22T00:07:43.498Z,81.84
2019-01-22T00:08:36.304Z,83.07
2019-01-22T00:09:28.690Z,82.5
2019-01-22T00:10:20.851Z,82.69
2019-01-22T00:11:12.825Z,82.03
2019-01-22T00:12:05.303Z,82.6
2019-01-22T00:12:58.145Z,81.84
2019-01-22T00:13:50.359Z,81.37
2019-01-22T00:14:42.788Z,81.65
2019-01-22T00:15:34.908Z,81.84
2019-01-22T00:16:27.027Z,82.6
2019-01-22T00:17:19.298Z,82.6
2019-01-22T00:18:11.652Z,82.12
2019-01-22T00:19:03.564Z,80.52
2019-01-22T00:19:56.015Z,79.38
2019-01-22T00:20:48.675Z,80.24
2019-01-22T00:21:40.754Z,80.52
2019-01-22T00:22:33.155Z,80.71
2019-01-22T00:23:25.621Z,81.71
2019-01-22T00:24:17.972Z,82.46
2019-01-22T00:25:10.102Z,83.5
2019-01-22T00:26:02.457Z,83.4
2019-01-22T00:26:54.604Z,83.4
2019-01-22T00:27:46.782Z,83.69
2019-01-22T00:28:39.231Z,86.24
2019-01-22T00:29:33.094Z,86.85
2019-01-22T00:30:25.159Z,87.42
2019-01-22T00:31:17.629Z,85.72
2019-01-22T00:32:09.630Z,83.64
2019-01-22T00:33:02.104Z,84.3
2019-01-22T00:33:54.099Z,83.64
2019-01-22T00:34:47.859Z,82.79
2019-01-22T00:35:40.030Z,82.6
2019-01-22T00:36:32.761Z,81.27
2019-01-22T00:37:25.538Z,81.18
2019-01-22T00:38:18.542Z,82.69
2019-01-22T00:39:10.957Z,82.79
2019-01-22T00:40:03.166Z,81.74
2019-01-22T00:40:55.366Z,82.03
2019-01-22T00:41:48.526Z,82.79
2019-01-22T00:42:40.470Z,83.73
2019-01-22T00:43:33.655Z,84.77
2019-01-22T00:44:25.538Z,84.01
2019-01-22T00:45:18.175Z,84.96
2019-01-22T00:46:10.555Z,82.69
2019-01-22T00:47:03.100Z,84.01
2019-01-22T00:47:55.761Z,84.58
2019-01-22T00:48:48.014Z,82.79
2019-01-22T00:49:40.270Z,81.65
2019-01-22T00:50:32.614Z,83.54
2019-01-22T00:51:25.126Z,83.45
2019-01-22T00:52:18.203Z,83.07
2019-01-22T00:53:10.677Z,83.17
2019-01-22T00:54:03.187Z,83.12
2019-01-22T00:54:55.547Z,83.22
2019-01-22T00:55:48.171Z,82.65
2019-01-22T00:56:40.586Z,82.46
2019-01-22T00:57:32.958Z,81.8
2019-01-22T00:58:25.506Z,82.65
2019-01-22T00:59:18.320Z,84.82
2019-01-22T01:00:10.509Z,86.43
2019-01-22T01:01:03.008Z,84.73
2019-01-22T01:01:55.673Z,84.82
2019-01-22T01:02:47.790Z,84.86
2019-01-22T01:03:40.168Z,83.36
2019-01-22T01:04:32.725Z,83.64
2019-01-22T01:05:25.193Z,84.68
2019-01-22T01:06:17.396Z,84.49
2019-01-22T01:07:10.025Z,83.54
2019-01-22T01:08:02.477Z,82.5
2019-01-22T01:08:54.749Z,81.74
2019-01-22T01:09:47.049Z,81.84
2019-01-22T01:10:40.734Z,82.79
2019-01-22T01:11:33.105Z,81.56
2019-01-22T01:12:26.278Z,81.84
2019-01-22T01:13:18.578Z,81.27
2019-01-22T01:14:10.641Z,81.18
2019-01-22T01:15:02.858Z,82.12
2019-01-22T01:15:55.552Z,81.37
2019-01-22T01:16:48.215Z,82.22
2019-01-22T01:17:40.633Z,82.79
2019-01-22T01:18:33.089Z,81.84
2019-01-22T01:19:24.997Z,82.6
2019-01-22T01:20:17.321Z,80.62
2019-01-22T01:21:09.505Z,81.37
2019-01-22T01:22:01.596Z,81.27
2019-01-22T01:22:53.632Z,80.43
2019-01-22T01:23:45.918Z,78.91
2019-01-22T01:24:37.895Z,78.81
2019-01-22T01:25:30.168Z,79.67
2019-01-22T01:26:22.034Z,81.09
2019-01-22T01:27:14.718Z,82.22
2019-01-22T01:28:07.138Z,81.65
2019-01-22T01:28:58.949Z,80.43
2019-01-22T01:29:50.979Z,80.33
2019-01-22T01:30:43.233Z,81.37
2019-01-22T01:31:35.460Z,79.76
2019-01-22T01:32:28.676Z,80.71
2019-01-22T01:33:20.479Z,80.24
2019-01-22T01:34:12.663Z,79.48
2019-01-22T01:35:04.594Z,80.14
2019-01-22T01:35:56.599Z,80.71
2019-01-22T01:36:48.481Z,80.71
2019-01-22T01:37:40.381Z,81.56
2019-01-22T01:38:32.901Z,80.9
2019-01-22T01:39:24.632Z,79.76
2019-01-22T01:40:17.859Z,80.71
2019-01-22T01:41:10.055Z,81.65
2019-01-22T01:42:02.668Z,81.18
2019-01-22T01:42:55.168Z,80.62
2019-01-22T01:43:47.103Z,81.8
2019-01-22T01:44:39.014Z,82.79
2019-01-22T01:45:31.275Z,81.8
2019-01-22T01:46:23.624Z,81.04
2019-01-22T01:47:15.444Z,81.61
2019-01-22T01:48:07.675Z,80.66
2019-01-22T01:48:59.998Z,81.99
2019-01-22T01:49:52.196Z,85.39
2019-01-22T01:50:44.013Z,84.92
2019-01-22T01:51:35.793Z,82.65
2019-01-22T01:52:27.938Z,80.95
2019-01-22T01:53:23.764Z,81.52
2019-01-22T01:54:12.555Z,82.28
2019-01-22T01:55:05.108Z,84.07
2019-01-22T01:55:57.696Z,84.45
2019-01-22T01:56:48.987Z,83.88
2019-01-22T01:58:56.571Z,84.16
2019-01-22T01:59:48.804Z,84.92
2019-01-22T02:00:41.697Z,82.93
2019-01-22T02:01:34.571Z,83.31
2019-01-22T02:02:26.683Z,83.12
2019-01-22T02:03:19.889Z,82.56
2019-01-22T02:04:11.918Z,83.22
2019-01-22T02:05:04.929Z,83.78
2019-01-22T02:05:57.862Z,84.26
2019-01-22T02:06:50.797Z,86.43
2019-01-22T02:07:43.835Z,87.28
2019-01-22T02:08:37.424Z,86.24
2019-01-22T02:09:29.508Z,84.26
2019-01-22T02:10:21.872Z,83.22
2019-01-22T02:11:14.708Z,81.42
2019-01-22T02:12:06.918Z,80.38
2019-01-22T02:12:59.230Z,81.23
2019-01-22T02:13:51.463Z,82.75
2019-01-22T02:14:43.748Z,82.88
2019-01-22T02:15:35.799Z,81.56
2019-01-22T02:16:27.670Z,81.09
2019-01-22T02:17:19.645Z,80.14
2019-01-22T02:18:12.024Z,81.93
2019-01-22T02:19:04.134Z,82.22
2019-01-22T02:19:56.168Z,82.12
2019-01-22T02:20:49.259Z,82.41
2019-01-22T02:21:41.394Z,81.56
2019-01-22T02:22:33.408Z,80.24
2019-01-22T02:23:30.599Z,80.14
2019-01-22T02:24:18.594Z,79.1
2019-01-22T02:25:10.988Z,79.19
2019-01-22T02:26:03.062Z,78.34
2019-01-22T02:26:55.327Z,78.63
2019-01-22T02:29:30.209Z,80.71
2019-01-22T02:30:22.123Z,82.03
2019-01-22T02:31:14.145Z,80.52
2019-01-22T02:32:06.010Z,81.74
2019-01-22T02:32:58.288Z,82.22
2019-01-22T02:33:50.946Z,81.09
2019-01-22T02:34:42.733Z,81.09
2019-01-22T02:35:34.748Z,80.24
2019-01-22T02:36:26.870Z,80.24
2019-01-22T02:37:18.969Z,82.5
2019-01-22T02:38:11.289Z,82.6
2019-01-22T02:39:03.225Z,80.43
2019-01-22T02:39:55.692Z,80.9
2019-01-22T02:40:47.951Z,79.76
2019-01-22T02:41:40.140Z,80.05
2019-01-22T02:42:32.913Z,81.37
2019-01-22T02:43:24.849Z,80.33
2019-01-22T02:44:16.745Z,80.14
2019-01-22T02:45:10.045Z,79.48
2019-01-22T02:46:02.149Z,78.63
2019-01-22T02:46:54.171Z,78.16
2019-01-22T02:47:47.058Z,78.16
2019-01-22T02:48:39.169Z,79.1
2019-01-22T02:49:31.302Z,79.57
2019-01-22T02:50:23.451Z,80.43
2019-01-22T02:51:15.246Z,80.8
2019-01-22T02:52:07.399Z,79.53
2019-01-22T02:52:59.698Z,79.06
2019-01-22T02:53:51.494Z,80.29
2019-01-22T02:54:43.874Z,82.65
2019-01-22T02:55:36.216Z,80.38
2019-01-22T02:56:28.471Z,81.04
2019-01-22T02:57:20.862Z,81.61
2019-01-22T02:58:13.143Z,83.03
2019-01-22T02:59:05.266Z,83.12
2019-01-22T02:59:57.811Z,84.82
2019-01-22T03:00:50.294Z,83.5
2019-01-22T03:01:42.222Z,82.93
2019-01-22T03:02:34.416Z,82.56
2019-01-22T03:03:26.521Z,81.61
2019-01-22T03:04:18.662Z,81.71
2019-01-22T03:05:11.423Z,83.22
2019-01-22T03:06:03.718Z,82.93
2019-01-22T03:06:55.878Z,82.56
2019-01-22T03:07:48.408Z,83.69
2019-01-22T03:08:40.351Z,84.35
2019-01-22T03:09:32.380Z,84.45
2019-01-22T03:10:24.349Z,84.73
2019-01-22T03:11:16.166Z,82.28
2019-01-22T03:12:08.321Z,80.85
2019-01-22T03:13:00.202Z,81.61
2019-01-22T03:13:52.731Z,81.23
2019-01-22T03:14:45.229Z,80.48
2019-01-22T03:15:37.859Z,81.85
2019-01-22T03:16:30.085Z,82.51
2019-01-22T03:17:22.117Z,83.27
2019-01-22T03:18:14.422Z,86.1
2019-01-22T03:19:06.470Z,86.95
2019-01-22T03:19:59.214Z,88.09
2019-01-22T03:20:51.318Z,87.75
2019-01-22T03:21:36.166Z,87.66
2019-01-22T03:22:16.678Z,86.9
2019-01-22T03:22:56.999Z,86.15
2019-01-22T03:23:37.424Z,85.58
2019-01-22T03:24:17.853Z,84.35
2019-01-22T03:24:58.258Z,83.5
2019-01-22T03:25:38.644Z,82.56
2019-01-22T03:26:19.129Z,83.46
2019-01-22T03:26:59.595Z,84.92
2019-01-22T03:27:40.021Z,85.39
2019-01-22T03:28:20.377Z,85.49
2019-01-22T03:29:00.838Z,85.01
2019-01-22T03:29:41.218Z,84.45
2019-01-22T03:30:21.644Z,85.11
2019-01-22T03:31:02.014Z,85.58
2019-01-22T03:31:42.343Z,83.59
2019-01-22T03:32:22.844Z,82.84
2019-01-22T03:33:03.175Z,82.65
2019-01-22T03:33:43.507Z,82.46
2019-01-22T03:34:23.985Z,82.84
2019-01-22T03:35:04.333Z,82.65
2019-01-22T03:35:44.689Z,81.71
2019-01-22T03:36:25.078Z,82.65
2019-01-22T03:37:05.462Z,82.75
2019-01-22T03:37:45.836Z,81.8
2019-01-22T03:38:26.181Z,81.8
2019-01-22T03:39:06.654Z,83.03
2019-01-22T03:39:47.047Z,82.75
2019-01-22T03:40:27.365Z,83.97
2019-01-22T03:41:07.773Z,83.97
2019-01-22T03:41:48.327Z,84.73
2019-01-22T03:42:28.616Z,85.49
2019-01-22T03:43:09.078Z,83.69
2019-01-22T03:43:49.478Z,83.5
2019-01-22T03:44:29.869Z,82.09
2019-01-22T03:45:10.376Z,81.14
2019-01-22T03:45:50.807Z,81.42
2019-01-22T03:46:31.187Z,81.04
2019-01-22T03:47:11.739Z,81.65
2019-01-22T03:47:52.004Z,80.76
2019-01-22T03:48:32.345Z,80.19
2019-01-22T03:49:12.766Z,79.06
2019-01-22T03:49:53.180Z,78.78
2019-01-22T03:50:33.610Z,78.78
2019-01-22T03:51:13.987Z,79.44
2019-01-22T03:51:54.383Z,79.44
2019-01-22T03:52:34.769Z,80.57
2019-01-22T03:53:15.154Z,80.95
2019-01-22T03:53:55.492Z,81.04
2019-01-22T03:54:35.930Z,81.8
2019-01-22T03:55:16.283Z,81.52
2019-01-22T03:55:56.748Z,81.23
2019-01-22T03:56:37.179Z,80.29
2019-01-22T03:57:17.565Z,81.61
2019-01-22T03:57:57.958Z,82.09
2019-01-22T03:58:38.372Z,81.74
2019-01-22T03:59:18.753Z,79.72
2019-01-22T03:59:59.189Z,81.04
2019-01-22T04:00:39.703Z,81.61
2019-01-22T04:01:20.054Z,80
2019-01-22T04:02:00.444Z,79.35
2019-01-22T04:02:40.847Z,78.97
2019-01-22T04:03:21.197Z,79.63
2019-01-22T04:04:01.766Z,81.52
2019-01-22T04:04:42.065Z,79.72
2019-01-22T04:05:22.459Z,79.63
2019-01-22T04:06:02.936Z,79.53
2019-01-22T04:06:43.220Z,80.48
2019-01-22T04:07:23.567Z,80.29
2019-01-22T04:08:04.087Z,81.23
2019-01-22T04:08:44.493Z,80.66
2019-01-22T04:09:24.884Z,81.71
2019-01-22T04:10:05.390Z,82.18
2019-01-22T04:10:45.771Z,81.99
2019-01-22T04:11:26.086Z,81.71
2019-01-22T04:12:06.510Z,81.04
2019-01-22T04:12:47.045Z,81.04
2019-01-22T04:13:27.603Z,81.8
2019-01-22T04:14:07.910Z,80.95
2019-01-22T04:14:48.323Z,81.65
2019-01-22T04:15:28.794Z,80.9
2019-01-22T04:16:09.258Z,81.18
2019-01-22T04:16:49.497Z,81.65
2019-01-22T04:17:30.057Z,80.62
2019-01-22T04:18:10.306Z,80.62
2019-01-22T04:18:50.657Z,78.91
2019-01-22T04:19:31.214Z,78.81
2019-01-22T04:20:11.550Z,78.63
2019-01-22T04:20:52.071Z,78.25
2019-01-22T04:21:32.455Z,79.1
2019-01-22T04:22:12.895Z,80.05
2019-01-22T04:22:53.283Z,78.72
2019-01-22T04:23:33.760Z,78.31
2019-01-22T04:24:14.174Z,78.02
2019-01-22T04:24:54.810Z,78.4
2019-01-22T04:25:35.348Z,78.21
2019-01-22T04:26:15.592Z,79.63
2019-01-22T04:26:55.995Z,80.38
2019-01-22T04:27:36.482Z,79.82
2019-01-22T05:06:57.504Z,84.88
2019-01-22T05:07:49.761Z,84.78
2019-01-22T05:08:42.267Z,86.19
2019-01-22T05:09:35.085Z,85.16
2019-01-22T05:10:27.136Z,85.44
2019-01-22T05:11:21.409Z,86.29
2019-01-22T05:12:14.583Z,86.99
2019-01-22T05:13:08.386Z,87.18
2019-01-22T05:14:01.167Z,86.62
2019-01-22T05:14:53.758Z,84.64
2019-01-22T05:15:46.445Z,84.64
2019-01-22T05:16:38.764Z,85.3
2019-01-22T05:17:31.284Z,85.3
2019-01-22T05:18:24.438Z,83.59
2019-01-22T05:19:17.889Z,83.65
2019-01-22T05:20:10.183Z,84.31
2019-01-22T05:21:02.798Z,84.03
2019-01-22T05:21:55.502Z,85.53
2019-01-22T05:22:48.180Z,85.91
2019-01-22T05:23:42.059Z,85.35
2019-01-22T05:24:34.349Z,85.35
2019-01-22T05:25:26.797Z,85.63
2019-01-22T05:26:19.745Z,85.91
2019-01-22T05:27:12.355Z,85.53
2019-01-22T05:28:05.439Z,84.59
2019-01-22T05:28:58.260Z,85.44
2019-01-22T05:29:51.998Z,85.44
2019-01-22T05:30:43.923Z,85.72
2019-01-22T05:31:36.234Z,85.72
2019-01-22T05:32:30.200Z,87.05
2019-01-22T05:33:24.027Z,87.62
2019-01-22T05:34:16.797Z,87.95
2019-01-22T05:35:08.764Z,89.27
2019-01-22T05:36:01.100Z,89.27
2019-01-22T05:36:53.440Z,89.88
2019-01-22T05:37:46.137Z,89.27
2019-01-22T05:38:39.825Z,89.31
2019-01-22T05:39:32.265Z,88.46
2019-01-22T05:40:25.895Z,88.98
2019-01-22T05:41:18.564Z,89.17
2019-01-22T05:42:11.649Z,89.55
2019-01-22T05:43:06.053Z,89.88
2019-01-22T05:43:57.134Z,89.4
2019-01-22T05:44:51.914Z,89.31
2019-01-22T05:45:44.729Z,89.22
2019-01-22T05:46:37.547Z,88.37
2019-01-22T05:47:32.360Z,87.71
2019-01-22T05:48:26.788Z,87.71
2019-01-22T05:49:19.427Z,87.9
2019-01-22T05:50:11.970Z,88.28
2019-01-22T05:51:04.795Z,88.28
2019-01-22T05:51:57.676Z,88.46
2019-01-22T05:52:50.520Z,87.62
2019-01-22T05:53:44.558Z,88.51
2019-01-22T05:54:37.345Z,88.51
2019-01-22T05:55:29.125Z,89.22
2019-01-22T05:56:21.645Z,89.03
2019-01-22T05:57:15.722Z,88.56
2019-01-22T05:58:08.367Z,89.4
2019-01-22T05:59:01.432Z,89.59
2019-01-22T05:59:54.881Z,89.88
2019-01-22T06:00:47.218Z,89.59
2019-01-22T06:01:40.150Z,88.37
2019-01-22T06:02:32.401Z,87.71
2019-01-22T06:03:24.961Z,87.9
2019-01-22T06:04:17.521Z,87.14
2019-01-22T06:05:15.147Z,85.25
2019-01-22T06:06:06.881Z,85.63
2019-01-22T06:06:59.299Z,85.25
2019-01-22T06:07:51.766Z,84.88
2019-01-22T06:08:44.966Z,87.14
2019-01-22T06:09:37.180Z,87.62
2019-01-22T06:10:29.362Z,87.43
2019-01-22T06:11:21.221Z,86.29
2019-01-22T06:12:14.200Z,85.16
2019-01-22T06:13:07.809Z,85.72
2019-01-22T06:14:04.162Z,86.1
2019-01-22T06:14:58.084Z,87.24
2019-01-22T06:15:55.334Z,86.76
2019-01-22T06:16:59.572Z,85.72
2019-01-22T06:17:55.687Z,84.69
2019-01-22T06:18:49.429Z,85.82
2019-01-22T06:19:41.268Z,86.57
2019-01-22T06:20:33.293Z,86.1
2019-01-22T06:21:26.263Z,85.91
2019-01-22T06:22:20.449Z,86.19
2019-01-22T06:23:16.017Z,87.62
2019-01-22T06:24:10.119Z,86.86
2019-01-22T06:25:03.313Z,86.95
2019-01-22T06:25:58.677Z,86.86
2019-01-22T06:26:51.263Z,86.01
2019-01-22T06:27:44.761Z,86.67
2019-01-22T06:28:37.923Z,87.33
2019-01-22T06:29:34.397Z,87.24
2019-01-22T06:30:26.648Z,86.95
2019-01-22T06:31:21.194Z,87.99
2019-01-22T06:34:38.641Z,89.03
2019-01-22T06:35:32.114Z,88.51
2019-01-22T06:36:25.460Z,87.18
2019-01-22T06:37:19.738Z,88.51
2019-01-22T06:38:12.028Z,86.15
2019-01-22T06:39:04.564Z,85.2
2019-01-22T06:39:57.007Z,85.68
2019-01-22T06:40:51.326Z,84.73
2019-01-22T06:41:45.559Z,81.93
2019-01-22T06:42:41.892Z,80.71
2019-01-22T06:43:41.274Z,80.66
2019-01-22T06:44:38.495Z,81.52
2019-01-22T06:45:38.491Z,80
2019-01-22T06:46:40.630Z,80.76
2019-01-22T06:47:42.605Z,82.75
2019-01-22T06:48:39.752Z,83.69
2019-01-22T06:49:39.053Z,82.56
2019-01-22T06:50:40.489Z,82.09
2019-01-22T06:51:37.196Z,82.84
2019-01-22T06:52:48.377Z,80.95
2019-01-22T06:53:42.568Z,83.5
2019-01-22T06:54:42.138Z,82.18
2019-01-22T06:55:43.974Z,81.8
2019-01-22T06:56:41.053Z,83.26
2019-01-22T06:57:34.572Z,83.07
2019-01-22T06:58:30.638Z,80.71
2019-01-22T07:00:31.798Z,83.36
2019-01-22T07:01:25.321Z,82.22
2019-01-22T07:02:17.891Z,80.24
2019-01-22T07:03:14.219Z,78.91
2019-01-22T07:04:09.975Z,79.57
2019-01-22T07:05:02.387Z,79.76
2019-01-22T07:05:56.486Z,80
2019-01-22T07:06:49.138Z,81.04
2019-01-22T07:07:42.691Z,80.48
2019-01-22T07:08:36.148Z,80.48
2019-01-22T07:09:28.460Z,80.66
2019-01-22T07:10:22.544Z,84.35
2019-01-22T07:11:15.562Z,83.5
2019-01-22T07:12:08.584Z,83.12
2019-01-22T07:13:01.379Z,82.28
2019-01-22T07:13:55.150Z,83.5
2019-01-22T07:14:48.911Z,81.71
2019-01-22T07:15:42.614Z,80.66
2019-01-22T07:16:39.466Z,82.46
2019-01-22T07:17:32.872Z,84.26
2019-01-22T07:20:00.684Z,84.54
2019-01-22T07:20:55.691Z,83.69
2019-01-22T07:21:47.854Z,83.31
2019-01-22T07:22:41.529Z,83.78
2019-01-22T07:23:36.115Z,83.31
2019-01-22T07:26:32.994Z,83.78
2019-01-22T07:27:39.267Z,83.12
2019-01-22T07:30:15.388Z,84.82
2019-01-22T07:31:08.446Z,83.59
2019-01-22T07:32:00.796Z,84.35
2019-01-22T07:32:53.436Z,86.15
2019-01-22T07:33:47.607Z,84.39
2019-01-22T07:34:39.713Z,85.43
2019-01-22T07:35:33.202Z,85.34
2019-01-22T07:36:25.064Z,83.3
2019-01-22T07:37:18.203Z,80.08
2019-01-22T07:38:12.250Z,76.59
2019-01-22T07:39:08.782Z,74.32
2019-01-22T07:40:00.622Z,75.93
2019-01-22T07:40:53.288Z,76.68
2019-01-22T07:41:46.001Z,75.74
2019-01-22T07:42:38.557Z,74.98
2019-01-22T07:43:32.912Z,77.2
2019-01-22T07:44:26.431Z,74.83
2019-01-22T07:45:23.438Z,72.66
2019-01-22T07:46:17.351Z,72.75
2019-01-22T07:47:18.291Z,72.85
2019-01-22T07:48:11.814Z,72.18
2019-01-22T07:49:03.916Z,72.85
2019-01-22T07:50:01.640Z,70.95
2019-01-22T07:50:53.355Z,71.71
2019-01-22T07:51:45.491Z,73.85
2019-01-22T07:52:39.988Z,73.88
2019-01-22T07:53:37.470Z,73.37
2019-01-22T07:54:34.375Z,73.94
2019-01-22T07:55:31.676Z,75.21
2019-01-22T07:56:24.556Z,73.98
2019-01-22T07:57:21.593Z,72.8
2019-01-22T07:58:19.069Z,72.8
2019-01-22T07:59:17.020Z,74.79
2019-01-22T08:00:13.285Z,75.83
2019-01-22T08:01:00.852Z,75.93
2019-01-22T08:01:41.238Z,76.12
2019-01-22T08:02:22.767Z,75.79
2019-01-22T08:03:03.664Z,75.6
2019-01-22T08:03:44.544Z,75.98
2019-01-22T08:04:24.756Z,76.93
2019-01-22T08:05:06.299Z,76.74
2019-01-22T08:05:47.719Z,78.44
2019-01-22T08:06:28.141Z,78.25
2019-01-22T08:07:08.605Z,78.81
2019-01-22T08:07:49.279Z,80.05
2019-01-22T08:08:30.128Z,79.19
2019-01-22T08:09:10.927Z,79
2019-01-22T08:09:51.970Z,80.71
2019-01-22T08:10:33.554Z,79.86
2019-01-22T08:11:14.201Z,79.48
2019-01-22T08:11:54.551Z,79.1
2019-01-22T08:12:34.957Z,80.62
2019-01-22T08:13:16.063Z,78.63
2019-01-22T08:13:56.546Z,77.12
2019-01-22T08:14:37.021Z,77.21
2019-01-22T08:15:17.577Z,78.53
2019-01-22T08:17:50.314Z,78.91
2019-01-22T08:18:51.546Z,77.78
2019-01-22T08:20:46.009Z,79.86
2019-01-22T08:21:41.277Z,78.76
2019-01-22T08:22:48.104Z,76.97
2019-01-22T08:23:50.080Z,74.88
2019-01-22T08:24:47.144Z,73.09
2019-01-22T08:25:41.097Z,73.28
2019-01-22T08:26:38.355Z,73.94
2019-01-22T08:27:31.490Z,76.34
2019-01-22T08:28:33.701Z,73.88
2019-01-22T08:29:27.920Z,71.61
2019-01-22T08:30:21.458Z,70.23
2019-01-22T08:31:17.950Z,70.98
2019-01-22T08:32:13.417Z,69.85
2019-01-22T08:33:08.861Z,69.44
2019-01-22T08:34:04.629Z,70.2
2019-01-22T08:34:59.333Z,71.33
2019-01-22T08:35:52.970Z,71.23
2019-01-22T08:36:51.834Z,70.95
2019-01-22T08:37:49.174Z,71.01
2019-01-22T08:40:27.380Z,75.07
2019-01-22T08:42:40.332Z,75.55
2019-01-22T08:43:47.767Z,76.97
2019-01-22T08:44:51.646Z,75.74
2019-01-22T08:46:44.366Z,76.02
2019-01-22T08:47:37.107Z,74.22
2019-01-22T08:48:18.785Z,74.04
2019-01-22T08:49:02.483Z,74.28
2019-01-22T08:49:44.036Z,75.42
2019-01-22T08:50:25.473Z,75.79
2019-01-22T08:51:07.407Z,77.78
2019-01-22T08:54:17.125Z,75.7
2019-01-22T08:55:07.964Z,75.98
2019-01-22T08:55:46.005Z,76.64
2019-01-22T08:56:26.728Z,76.45
2019-01-22T08:57:08.660Z,76.64
2019-01-22T08:57:54.154Z,77.5
2019-01-22T08:58:40.142Z,77.59
2019-01-22T08:59:21.892Z,77.02
2019-01-22T09:00:04.865Z,78.34
2019-01-22T09:00:47.118Z,78.63
2019-01-22T09:01:30.266Z,77.97
2019-01-22T09:02:10.741Z,77.21
2019-01-22T09:02:53.051Z,76.93
2019-01-22T09:03:34.292Z,77.12
2019-01-22T09:04:20.441Z,76.59
2019-01-22T09:05:02.394Z,77.06
2019-01-22T09:05:45.631Z,75.83
2019-01-22T09:06:28.144Z,75.07
2019-01-22T09:07:08.996Z,74.28
2019-01-22T09:07:50.830Z,75.13
2019-01-22T09:08:32.805Z,76.07
2019-01-22T09:09:15.835Z,75.98
2019-01-22T09:09:56.957Z,77.78
2019-01-22T09:10:41.156Z,78.16
2019-01-22T09:11:22.769Z,79.38
2019-01-22T09:14:04.420Z,78.25
2019-01-22T09:15:18.063Z,77.69
2019-01-22T09:16:12.918Z,76.93
2019-01-22T09:17:13.778Z,76.83
2019-01-22T09:18:11.695Z,76.97
2019-01-22T09:19:06.176Z,76.12
2019-01-22T09:20:01.035Z,75.74
2019-01-22T09:20:54.449Z,76.68
2019-01-22T09:21:48.719Z,77.82
2019-01-22T09:22:45.059Z,74.51
2019-01-22T09:23:47.394Z,73.37
2019-01-22T09:24:39.870Z,73.79
2019-01-22T09:25:32.953Z,74.64
2019-01-22T09:26:30.739Z,73.88
2019-01-22T09:27:24.118Z,72.28
2019-01-22T09:28:24.896Z,71.42
2019-01-22T09:29:26.119Z,72.28
2019-01-22T09:30:26.883Z,71.71
2019-01-22T09:31:27.515Z,71.42
2019-01-22T09:32:29.663Z,73.28
2019-01-22T09:33:30.533Z,72.62
2019-01-22T09:34:38.998Z,73.37
2019-01-22T09:35:42.616Z,75.55
2019-01-22T09:36:46.116Z,75.45
2019-01-22T09:37:48.397Z,75.68
2019-01-22T09:39:08.227Z,72.94
2019-01-22T09:40:17.906Z,72.94
2019-01-22T09:41:17.005Z,72.99
2019-01-22T09:42:22.595Z,74.74
2019-01-22T09:43:23.534Z,74.17
2019-01-22T09:45:18.400Z,72.56
2019-01-22T09:46:16.751Z,73.75
2019-01-22T09:47:18.462Z,72.8
2019-01-22T09:48:18.556Z,73.28
2019-01-22T09:49:19.675Z,73.85
2019-01-22T09:50:15.456Z,74.79
2019-01-22T09:51:13.990Z,74.6
2019-01-22T09:52:13.041Z,74.41
2019-01-22T09:53:12.385Z,75.07
2019-01-22T09:54:11.607Z,75.74
2019-01-22T09:55:22.284Z,74.51
2019-01-22T09:56:14.753Z,76.31
2019-01-22T09:57:30.428Z,75.64
2019-01-22T09:58:34.650Z,74.07
2019-01-22T10:02:22.825Z,73.41
2019-01-22T10:03:19.267Z,72.88
2019-01-22T10:04:03.784Z,71.52
2019-01-22T10:04:49.588Z,71.61
2019-01-22T10:05:34.669Z,71.61
2019-01-22T10:06:16.760Z,72.37
2019-01-22T10:07:00.230Z,73.03
2019-01-22T10:07:45.066Z,72.85
2019-01-22T10:11:31.736Z,73.56
2019-01-22T10:12:23.883Z,74.69
2019-01-22T10:13:03.175Z,75.17
2019-01-22T10:13:47.981Z,74.74
2019-01-22T10:14:26.205Z,74.04
2019-01-22T10:15:14.813Z,73.09
2019-01-22T10:17:18.683Z,73.66
2019-01-22T10:19:32.713Z,73.09
2019-01-22T10:20:32.143Z,73.6
2019-01-22T10:21:36.365Z,73.5
2019-01-22T10:25:04.257Z,72.47
2019-01-22T10:25:44.731Z,71.52
2019-01-22T10:26:25.378Z,71.04
2019-01-22T10:27:07.824Z,71.23
2019-01-22T10:28:03.493Z,71.33
2019-01-22T10:28:45.951Z,70.76
2019-01-22T11:17:35.238Z,61.83
2019-01-22T11:18:42.793Z,61.83
2019-01-22T11:19:40.987Z,62.31
2019-01-22T11:20:36.979Z,60.73
2019-01-22T11:24:03.032Z,59.22
2019-01-22T11:24:44.946Z,59.41
2019-01-22T11:25:26.922Z,59.5
2019-01-22T11:26:07.335Z,59.22
2019-01-22T11:26:47.754Z,59.31
2019-01-22T11:27:28.122Z,59.28
2019-01-22T11:28:09.920Z,59.5
2019-01-22T11:30:58.737Z,58.84
2019-01-22T11:31:41.897Z,58.65
2019-01-22T11:32:22.390Z,59.09
2019-01-22T11:33:02.948Z,59.56
2019-01-22T11:33:44.027Z,60.32
2019-01-22T11:34:24.442Z,60.51
2019-01-22T11:35:05.316Z,60.8
2019-01-22T11:37:25.189Z,60.7
2019-01-22T11:38:12.976Z,60.61
2019-01-22T11:44:12.984Z,61.18
2019-01-22T11:44:55.422Z,61.83
2019-01-22T11:45:44.555Z,62.02
2019-01-22T11:46:26.986Z,62.12
2019-01-22T11:47:11.650Z,61.08
2019-01-22T11:47:55.569Z,60.99
2019-01-22T11:48:39.422Z,61.36
2019-01-22T11:49:23.421Z,60.89
2019-01-22T11:50:12.601Z,61.36
2019-01-22T11:50:55.494Z,61.93
2019-01-22T11:51:39.786Z,61.74
2019-01-22T11:52:22.542Z,61.18
2019-01-22T11:53:07.345Z,61.36
2019-01-22T11:53:53.360Z,61.18
2019-01-22T11:54:33.793Z,61.27
2019-01-22T11:55:20.108Z,61.4
2019-01-22T11:56:02.162Z,61.27
2019-01-22T11:56:42.604Z,61.27
2019-01-22T11:57:23.032Z,61.36
2019-01-22T11:58:05.397Z,60.64
2019-01-22T11:58:47.364Z,60.7
2019-01-22T11:59:29.058Z,60.22
2019-01-22T12:00:11.372Z,60.73
2019-01-22T12:00:53.886Z,60.8
2019-01-22T12:01:39.016Z,60.61
2019-01-22T12:04:27.235Z,60.41
2019-01-22T12:05:07.651Z,60.7
2019-01-22T12:05:53.778Z,60.8
2019-01-22T12:06:34.209Z,61.68
2019-01-22T12:07:16.424Z,61.46
2019-01-22T12:07:58.183Z,61.77
2019-01-22T12:11:51.179Z,62.88
2019-01-22T12:12:36.361Z,63.54
2019-01-22T12:13:17.975Z,63.92
2019-01-22T12:14:02.637Z,64.2
2019-01-22T12:14:51.801Z,64.68
2019-01-22T12:15:34.242Z,64.39
2019-01-22T12:16:16.745Z,63.54
2019-01-22T12:17:02.668Z,63.45
2019-01-22T12:17:45.073Z,64.01
2019-01-22T12:18:42.542Z,64.11
2019-01-22T12:19:24.111Z,65.25
2019-01-22T12:20:23.215Z,64.96
2019-01-22T12:21:04.290Z,64.42
2019-01-22T12:21:46.814Z,64.81
2019-01-22T12:22:30.369Z,64.04
2019-01-22T12:24:31.000Z,61.96
2019-01-22T12:25:39.328Z,62.24
2019-01-22T12:26:42.162Z,62.62
2019-01-22T12:29:03.712Z,62.72
2019-01-22T12:32:45.846Z,63.64
2019-01-22T12:33:46.797Z,64.68
2019-01-22T12:34:48.293Z,64.58
2019-01-22T12:37:15.336Z,64.39
2019-01-22T12:44:54.027Z,64.58
2019-01-22T12:45:53.184Z,64.49
2019-01-22T12:48:06.079Z,64.49
2019-01-22T12:50:38.030Z,65.72
2019-01-22T12:51:37.881Z,66.53
2019-01-22T12:52:56.664Z,66.63
2019-01-22T12:55:37.944Z,67.96
2019-01-22T12:56:40.875Z,68.15
2019-01-22T12:57:35.808Z,67.77
2019-01-22T12:58:29.536Z,67.77
2019-01-22T13:00:30.662Z,68.24
2019-01-22T13:01:03.299Z,68.62
2019-01-22T13:01:44.193Z,68.43
2019-01-22T13:02:24.498Z,68.81
2019-01-22T13:03:08.484Z,68.24
2019-01-22T13:03:48.257Z,68.15
2019-01-22T13:04:28.657Z,68.33
2019-01-22T13:05:09.736Z,67.96
2019-01-22T13:05:50.339Z,68.05
2019-01-22T13:06:31.701Z,67.96
2019-01-22T13:07:12.027Z,68.15
2019-01-22T13:07:52.442Z,67.96
2019-01-22T13:08:35.194Z,68.52
2019-01-22T13:09:15.697Z,68.24
2019-01-22T13:09:56.921Z,68.15
2019-01-22T13:10:37.425Z,68.15
2019-01-22T13:11:18.880Z,68.71
2019-01-22T13:12:01.187Z,69.19
2019-01-22T13:14:16.208Z,70.23
2019-01-22T13:15:14.150Z,70.51
2019-01-22T13:16:17.751Z,70.42
2019-01-22T13:17:20.024Z,70.61
2019-01-22T13:18:15.358Z,71.08
2019-01-22T13:19:07.526Z,70.89
2019-01-22T13:20:01.443Z,69.28
2019-01-22T13:22:23.111Z,65.97
2019-01-22T13:23:03.171Z,65.69
2019-01-22T13:23:45.308Z,65.31
2019-01-22T13:24:26.165Z,65.02
2019-01-22T13:25:08.064Z,64.55
2019-01-22T13:25:48.443Z,64.36
2019-01-22T13:26:29.155Z,64.55
2019-01-22T13:27:11.411Z,64.55
2019-01-22T13:27:52.123Z,64.55
2019-01-22T13:28:32.544Z,64.07
2019-01-22T13:29:13.748Z,64.17
2019-01-22T13:30:01.114Z,63.98